KACJ

Jimmy Carter Regional Airport

Americus, Georgia, USA
METAR KACJ 180835Z AUTO 00000KT 1/4SM FG OVC004 15/12 A3016 RMK AO2
Observed Flight Rules
Dec-18 @ 08:35 UTC (16 minutes ago) Instrument Flight Rules
Wind Visibility Clouds Conditions
Calm 1/4 miles
  • Overcast at 400' AGL
  • Fog
Temperatures Readings
Current 15°C / 59°F
Dewpoint 12°C / 54°F
Humidity 82%
Altimeter 30.16" Hg
Pressure 1021 hPa
Elevation 143
METAR KACJ 180835Z AUTO 00000KT 1/4SM FG OVC004 15/12 A3016 RMK AO2
Observed Flight Rules
Dec-18 @ 08:35 UTC
(16 minutes ago)
LIFR
Wind Visibility
Calm 1/4 miles
Clouds
  • Overcast at 400' AGL
Conditions
  • Fog
Temperature Dewpoint
15°C / 59°F 12°C / 54°F
Humidity Altimeter Pressure
82% 30.16" Hg 1021 hPa